Time;durP1;ratioP1;P1;durP2;ratioP2;P2;SDS_P1;SDS_P2;PMS_P1;PMS_P2;Temp;Humidity;BMP_temperature;BMP_pressure;BME280_temperature;BME280_humidity;BME280_pressure;Samples;Min_cycle;Max_cycle;Signal;HPM_P1;HPM_P2
2022/03/24 00:00:53;;;;;;;28.48;18.95;;;8.00;64.30;;;;;;5030234;28;20050;-81
2022/03/24 00:03:20;;;;;;;28.60;19.98;;;8.00;64.40;;;;;;5034726;28;20052;-81
2022/03/24 00:05:53;;;;;;;25.70;19.50;;;8.00;64.50;;;;;;5036366;28;20589;-81
2022/03/24 00:08:20;;;;;;;27.10;18.70;;;8.00;64.50;;;;;;5035021;28;20045;-81
2022/03/24 00:10:47;;;;;;;24.98;19.23;;;7.90;64.60;;;;;;5033810;28;20053;-82
2022/03/24 00:13:14;;;;;;;28.08;20.73;;;7.90;64.60;;;;;;5032990;28;20049;-81
2022/03/24 00:15:41;;;;;;;29.10;21.25;;;7.90;64.60;;;;;;5030886;28;20045;-81
2022/03/24 00:18:08;;;;;;;25.27;18.83;;;7.80;64.70;;;;;;5036873;28;20096;-82
2022/03/24 00:20:36;;;;;;;27.40;20.27;;;7.80;64.70;;;;;;5034959;28;20053;-81
2022/03/24 00:23:03;;;;;;;26.17;19.95;;;7.80;64.80;;;;;;5033668;28;20084;-82
2022/03/24 00:25:30;;;;;;;24.75;18.80;;;7.70;64.80;;;;;;5034702;28;20075;-81
2022/03/24 00:27:56;;;;;;;27.25;19.20;;;7.70;64.90;;;;;;5031596;28;20045;-81
2022/03/24 00:30:24;;;;;;;23.73;18.60;;;7.70;64.90;;;;;;5033022;28;20061;-81
2022/03/24 00:32:51;;;;;;;24.05;19.15;;;7.60;65.00;;;;;;5036168;28;20052;-81
2022/03/24 00:35:18;;;;;;;25.98;19.60;;;7.60;65.00;;;;;;5033568;28;20095;-81
2022/03/24 00:37:45;;;;;;;27.98;20.77;;;7.60;65.10;;;;;;5034678;28;20576;-81
2022/03/24 00:40:16;;;;;;;28.73;20.90;;;7.50;65.10;;;;;;5032452;28;20049;-81
2022/03/24 00:42:44;;;;;;;23.13;18.67;;;7.50;65.10;;;;;;5030003;28;20451;-82
2022/03/24 00:45:12;;;;;;;26.80;20.35;;;7.50;65.20;;;;;;5036578;28;20049;-83
2022/03/24 00:47:40;;;;;;;27.00;20.15;;;7.50;65.20;;;;;;5034698;28;20084;-82
2022/03/24 00:50:09;;;;;;;32.90;22.20;;;7.40;65.30;;;;;;5034621;28;20103;-82
2022/03/24 00:52:41;;;;;;;27.25;21.23;;;7.40;65.30;;;;;;5034680;28;20049;-82
2022/03/24 00:55:11;;;;;;;31.00;23.05;;;7.40;65.30;;;;;;5032885;28;20591;-81
2022/03/24 00:57:40;;;;;;;27.08;21.10;;;7.40;65.40;;;;;;5031020;28;22645;-82
2022/03/24 01:00:09;;;;;;;28.48;22.27;;;7.40;65.40;;;;;;5036499;28;20054;-81
2022/03/24 01:02:38;;;;;;;29.38;21.60;;;7.30;65.40;;;;;;5033461;28;20045;-83
2022/03/24 01:05:07;;;;;;;30.08;23.05;;;7.30;65.50;;;;;;5034293;28;20411;-81
2022/03/24 01:07:37;;;;;;;29.20;22.63;;;7.30;65.50;;;;;;5034355;28;20049;-81
2022/03/24 01:10:05;;;;;;;28.52;22.52;;;7.20;65.50;;;;;;5032114;28;20510;-82
2022/03/24 01:12:32;;;;;;;29.83;23.52;;;7.20;65.50;;;;;;5030691;28;20041;-81
2022/03/24 01:14:59;;;;;;;26.77;21.20;;;7.20;65.50;;;;;;5068526;28;20053;-83
2022/03/24 01:17:26;;;;;;;30.33;21.35;;;7.20;65.50;;;;;;5038089;28;20050;-81
2022/03/24 01:19:53;;;;;;;26.60;20.75;;;7.20;65.50;;;;;;5036717;28;20132;-82
2022/03/24 01:22:20;;;;;;;28.27;21.73;;;7.10;65.60;;;;;;5037957;28;20060;-82
2022/03/24 01:24:47;;;;;;;27.77;20.48;;;7.10;65.50;;;;;;5032179;28;20067;-82
2022/03/24 01:27:15;;;;;;;26.98;20.75;;;7.10;65.60;;;;;;5039794;28;20049;-81
2022/03/24 01:29:44;;;;;;;26.77;19.98;;;7.10;65.60;;;;;;5035368;28;20521;-81
2022/03/24 01:32:11;;;;;;;25.38;20.08;;;7.00;65.60;;;;;;5037884;28;20115;-81
2022/03/24 01:34:38;;;;;;;25.05;19.23;;;7.00;65.60;;;;;;5037940;28;20049;-81
2022/03/24 01:37:06;;;;;;;25.45;20.25;;;6.90;65.60;;;;;;5036132;28;20112;-81
2022/03/24 01:39:33;;;;;;;24.48;20.15;;;6.90;65.60;;;;;;5034567;28;20041;-81
2022/03/24 01:42:00;;;;;;;25.52;20.50;;;6.90;65.60;;;;;;5039752;28;20498;-81
2022/03/24 01:44:28;;;;;;;25.63;20.08;;;6.80;65.60;;;;;;5037698;28;20053;-81
2022/03/24 01:47:06;;;;;;;22.90;19.38;;;6.90;65.70;;;;;;5037659;28;20081;-81
2022/03/24 01:49:35;;;;;;;25.10;20.02;;;6.80;65.70;;;;;;5037544;28;20456;-82
2022/03/24 01:52:07;;;;;;;24.88;20.30;;;6.80;65.70;;;;;;5034470;28;20049;-81
2022/03/24 01:54:36;;;;;;;24.10;19.25;;;6.80;65.80;;;;;;5034073;28;20057;-81
2022/03/24 01:57:04;;;;;;;23.50;18.77;;;6.70;65.70;;;;;;5039357;28;20050;-81
2022/03/24 01:59:32;;;;;;;25.13;19.48;;;6.70;65.80;;;;;;5034734;28;20468;-81
2022/03/24 02:01:59;;;;;;;24.38;19.27;;;6.70;65.80;;;;;;5037232;28;20457;-81
2022/03/24 02:04:26;;;;;;;23.33;18.95;;;6.60;65.80;;;;;;5036031;28;20049;-81
2022/03/24 02:06:53;;;;;;;24.98;19.15;;;6.60;65.80;;;;;;5032866;28;20053;-81
2022/03/24 02:09:20;;;;;;;24.17;19.30;;;6.60;65.80;;;;;;5036093;28;20403;-81
2022/03/24 02:11:47;;;;;;;27.58;20.15;;;6.50;65.80;;;;;;5036872;28;20045;-81
2022/03/24 02:14:14;;;;;;;23.33;19.00;;;6.50;65.80;;;;;;5036012;28;20563;-81
2022/03/24 02:16:42;;;;;;;25.17;19.45;;;6.50;65.80;;;;;;5037245;28;20050;-81
2022/03/24 02:19:15;;;;;;;26.40;20.92;;;6.50;65.80;;;;;;5035983;28;20048;-82
2022/03/24 02:21:46;;;;;;;24.08;20.10;;;6.50;65.90;;;;;;5032943;28;20053;-82
2022/03/24 02:24:15;;;;;;;25.63;19.63;;;6.40;65.90;;;;;;5049970;28;20057;-82
2022/03/24 02:26:44;;;;;;;24.02;19.27;;;6.40;65.90;;;;;;5037257;28;20049;-81
2022/03/24 02:29:12;;;;;;;25.05;20.25;;;6.40;65.90;;;;;;5036916;28;20107;-82
2022/03/24 02:31:43;;;;;;;29.70;20.42;;;6.40;66.00;;;;;;5036627;28;20061;-81
2022/03/24 02:37:00;;;;;;;24.20;19.90;;;6.40;66.00;;;;;;5018710;28;20096;-81
2022/03/24 02:39:28;;;;;;;24.95;19.45;;;6.30;66.10;;;;;;5034949;28;20099;-81
2022/03/24 02:41:57;;;;;;;25.75;19.70;;;6.30;66.10;;;;;;5038421;28;20449;-81
2022/03/24 02:44:26;;;;;;;24.73;19.88;;;6.30;66.20;;;;;;5036419;28;20053;-81
2022/03/24 02:46:55;;;;;;;26.38;20.95;;;6.20;66.20;;;;;;5036434;28;20045;-81
2022/03/24 02:49:25;;;;;;;31.02;21.83;;;6.20;66.20;;;;;;5036406;28;20049;-81
2022/03/24 02:51:53;;;;;;;27.30;21.10;;;6.20;66.30;;;;;;5032700;28;20049;-81
2022/03/24 02:54:22;;;;;;;24.10;20.42;;;6.20;66.40;;;;;;5036359;28;20445;-81
2022/03/24 02:56:49;;;;;;;26.65;20.98;;;6.20;66.40;;;;;;5037267;28;20479;-81
2022/03/24 02:59:16;;;;;;;25.20;20.50;;;6.10;66.50;;;;;;5035184;28;20406;-81
2022/03/24 03:01:50;;;;;;;26.45;20.73;;;6.10;66.50;;;;;;5036212;28;20634;-81
2022/03/24 03:04:17;;;;;;;26.63;21.42;;;6.10;66.50;;;;;;5035029;28;20470;-81
2022/03/24 03:06:45;;;;;;;26.52;21.23;;;6.10;66.60;;;;;;5015873;28;20104;-81
2022/03/24 03:09:16;;;;;;;26.83;21.58;;;6.00;66.60;;;;;;5045437;28;20049;-81
2022/03/24 03:11:45;;;;;;;27.05;20.98;;;6.00;66.70;;;;;;5034026;28;20064;-82
2022/03/24 03:14:14;;;;;;;25.90;21.17;;;6.00;66.70;;;;;;5034822;28;20464;-82
2022/03/24 03:16:42;;;;;;;26.45;20.80;;;5.90;66.80;;;;;;5034509;28;20092;-82
2022/03/24 03:19:09;;;;;;;27.25;20.85;;;6.00;66.80;;;;;;5034692;28;20045;-82
2022/03/24 03:21:37;;;;;;;28.70;22.08;;;5.90;66.90;;;;;;5032190;28;20050;-82
2022/03/24 03:24:05;;;;;;;27.85;21.90;;;5.90;66.90;;;;;;5037783;28;20136;-82
2022/03/24 03:26:32;;;;;;;28.23;22.63;;;5.90;67.00;;;;;;5035805;28;20053;-81
2022/03/24 03:28:59;;;;;;;26.75;21.17;;;5.90;67.00;;;;;;5035751;28;20049;-81
2022/03/24 03:31:26;;;;;;;27.23;21.27;;;5.90;67.10;;;;;;5035570;28;20444;-81
2022/03/24 03:33:54;;;;;;;28.92;19.92;;;5.80;67.10;;;;;;5032615;28;20042;-81
2022/03/24 03:36:26;;;;;;;26.88;21.30;;;5.80;67.10;;;;;;5032764;28;20077;-81
2022/03/24 03:38:53;;;;;;;28.60;21.77;;;5.80;67.10;;;;;;5036604;28;20045;-81
2022/03/24 03:41:23;;;;;;;26.65;21.10;;;5.80;67.10;;;;;;5035577;28;20053;-81
2022/03/24 03:43:50;;;;;;;27.60;21.65;;;5.80;67.10;;;;;;5035406;28;20461;-82
2022/03/24 03:46:17;;;;;;;27.23;20.90;;;5.80;67.10;;;;;;5035455;28;20106;-82
2022/03/24 03:48:45;;;;;;;28.33;20.58;;;5.70;67.10;;;;;;5015484;28;20122;-81
2022/03/24 03:51:12;;;;;;;28.17;20.85;;;5.70;67.20;;;;;;5044507;28;20053;-82
2022/03/24 03:53:40;;;;;;;23.70;20.38;;;5.70;67.20;;;;;;5034168;28;20068;-81
2022/03/24 03:56:07;;;;;;;26.55;20.83;;;5.70;67.20;;;;;;5033680;28;20076;-81
2022/03/24 03:58:35;;;;;;;28.45;21.52;;;5.60;67.20;;;;;;5034999;28;20102;-81
2022/03/24 04:01:05;;;;;;;28.38;20.58;;;5.60;67.20;;;;;;5032962;28;20454;-82
2022/03/24 04:03:34;;;;;;;27.52;21.73;;;5.50;67.20;;;;;;5031902;28;20649;-81
2022/03/24 04:06:06;;;;;;;27.38;21.20;;;5.60;67.30;;;;;;5036951;28;20053;-81
2022/03/24 04:08:35;;;;;;;23.95;20.25;;;5.50;67.30;;;;;;5035008;28;20076;-81
2022/03/24 04:11:03;;;;;;;25.65;19.52;;;5.50;67.30;;;;;;5034834;28;20472;-81
2022/03/24 04:13:31;;;;;;;27.45;21.10;;;5.50;67.30;;;;;;5033792;28;20110;-81
2022/03/24 04:15:57;;;;;;;24.67;20.80;;;5.50;67.40;;;;;;5032201;28;20107;-82
2022/03/24 04:18:25;;;;;;;26.33;20.95;;;5.50;67.40;;;;;;5033542;28;20053;-82
2022/03/24 04:20:52;;;;;;;27.08;21.10;;;5.40;67.40;;;;;;5036261;28;20056;-81
2022/03/24 04:23:19;;;;;;;25.70;20.95;;;5.40;67.40;;;;;;5034785;28;20055;-81
2022/03/24 04:25:46;;;;;;;26.85;20.27;;;5.40;67.40;;;;;;5033661;28;20045;-81
2022/03/24 04:28:14;;;;;;;27.48;21.30;;;5.40;67.50;;;;;;5033102;28;20057;-81
2022/03/24 04:30:44;;;;;;;24.67;19.85;;;5.40;67.50;;;;;;5030519;28;20050;-81
2022/03/24 04:33:12;;;;;;;26.02;20.00;;;5.30;67.50;;;;;;5043457;28;20134;-81
2022/03/24 04:35:39;;;;;;;24.58;19.52;;;5.30;67.50;;;;;;5032273;28;20053;-81
2022/03/24 04:38:07;;;;;;;28.02;21.00;;;5.30;67.60;;;;;;5034615;28;20502;-81
2022/03/24 04:40:35;;;;;;;24.55;20.70;;;5.30;67.60;;;;;;5034851;28;20053;-81
2022/03/24 04:43:04;;;;;;;25.00;20.55;;;5.30;67.60;;;;;;5032699;28;20057;-81
2022/03/24 04:45:33;;;;;;;27.65;21.30;;;5.20;67.70;;;;;;5031895;28;20049;-81
2022/03/24 04:48:01;;;;;;;25.92;21.05;;;5.20;67.70;;;;;;5036376;28;20485;-81
2022/03/24 04:50:29;;;;;;;27.42;21.25;;;5.20;67.70;;;;;;5037510;28;20465;-81
2022/03/24 04:52:57;;;;;;;26.15;21.23;;;5.10;67.70;;;;;;5038672;28;20042;-81
2022/03/24 04:55:24;;;;;;;26.95;20.25;;;5.10;67.80;;;;;;5038699;28;20049;-81
2022/03/24 04:57:51;;;;;;;27.50;21.77;;;5.20;67.80;;;;;;5034956;28;20049;-81
2022/03/24 05:00:18;;;;;;;29.52;21.40;;;5.10;67.80;;;;;;5039280;28;20068;-81
2022/03/24 05:02:47;;;;;;;28.45;21.77;;;5.10;67.80;;;;;;5038521;28;20053;-81
2022/03/24 05:05:15;;;;;;;32.03;22.42;;;5.00;67.90;;;;;;5038277;28;20061;-80
2022/03/24 05:07:42;;;;;;;29.77;22.13;;;5.00;67.90;;;;;;5037259;28;20053;-81
2022/03/24 05:10:10;;;;;;;26.27;21.10;;;5.00;67.90;;;;;;5037238;28;20106;-80
2022/03/24 05:12:39;;;;;;;31.25;21.08;;;5.00;68.00;;;;;;5034611;28;20053;-80
2022/03/24 05:15:11;;;;;;;29.52;22.13;;;5.00;68.00;;;;;;5039602;28;20045;-81
2022/03/24 05:17:39;;;;;;;26.73;21.25;;;4.90;68.10;;;;;;5037804;28;20050;-81
2022/03/24 05:20:07;;;;;;;27.05;21.25;;;4.90;68.10;;;;;;5038157;28;20099;-80
2022/03/24 05:22:37;;;;;;;28.75;22.17;;;4.90;68.10;;;;;;5037026;28;20045;-80
2022/03/24 05:25:05;;;;;;;27.25;20.95;;;4.90;68.20;;;;;;5036121;28;20041;-81
2022/03/24 05:27:32;;;;;;;28.75;22.90;;;4.90;68.20;;;;;;5035329;28;20053;-82
2022/03/24 05:29:59;;;;;;;29.70;22.58;;;4.90;68.30;;;;;;5039761;28;20502;-82
2022/03/24 05:32:27;;;;;;;30.85;23.08;;;4.90;68.30;;;;;;5037566;28;20107;-82
2022/03/24 05:34:54;;;;;;;30.40;22.88;;;4.90;68.30;;;;;;5037714;28;20099;-82
2022/03/24 05:37:22;;;;;;;28.55;23.25;;;4.90;68.30;;;;;;5036718;28;20456;-81
2022/03/24 05:39:50;;;;;;;31.35;22.67;;;4.80;68.40;;;;;;5032728;28;20042;-81
2022/03/24 05:42:17;;;;;;;29.20;22.52;;;4.80;68.40;;;;;;5038706;28;20461;-82
2022/03/24 05:44:44;;;;;;;25.92;22.02;;;4.80;68.50;;;;;;5035609;28;20096;-81
2022/03/24 05:47:11;;;;;;;30.63;23.45;;;4.80;68.50;;;;;;5036146;28;20045;-81
2022/03/24 05:49:38;;;;;;;28.10;22.08;;;4.80;68.50;;;;;;5037639;28;20068;-81
2022/03/24 05:52:05;;;;;;;28.45;22.38;;;4.80;68.50;;;;;;5033371;28;20057;-81
2022/03/24 05:54:33;;;;;;;32.17;22.77;;;4.70;68.60;;;;;;5034514;28;20104;-81
2022/03/24 05:57:00;;;;;;;29.02;23.65;;;4.70;68.60;;;;;;5039417;28;20049;-81
2022/03/24 05:59:27;;;;;;;33.67;23.58;;;4.70;68.60;;;;;;5037054;28;20575;-81
2022/03/24 06:01:53;;;;;;;35.15;24.27;;;4.70;68.60;;;;;;5035516;28;20103;-81
2022/03/24 06:04:22;;;;;;;33.53;23.05;;;4.70;68.60;;;;;;5037348;28;20103;-81
2022/03/24 06:06:55;;;;;;;31.50;23.55;;;4.70;68.60;;;;;;5033382;28;20066;-81
2022/03/24 06:09:22;;;;;;;30.33;23.30;;;4.60;68.70;;;;;;5035856;28;20494;-81
2022/03/24 06:11:52;;;;;;;31.83;23.98;;;4.60;68.70;;;;;;5037082;28;20623;-80
2022/03/24 06:14:20;;;;;;;31.92;23.52;;;4.60;68.70;;;;;;5035705;28;20132;-81
2022/03/24 06:16:48;;;;;;;36.78;25.42;;;4.60;68.70;;;;;;5037068;28;20425;-81
2022/03/24 06:19:15;;;;;;;33.75;25.67;;;4.60;68.70;;;;;;5035751;28;20509;-81
2022/03/24 06:21:43;;;;;;;48.35;26.23;;;4.60;68.80;;;;;;5031762;28;20145;-81
2022/03/24 06:24:11;;;;;;;43.08;27.58;;;4.50;68.80;;;;;;5070916;28;20054;-81
2022/03/24 06:26:38;;;;;;;40.05;26.05;;;4.50;68.80;;;;;;5036941;28;20107;-81
2022/03/24 06:29:05;;;;;;;43.22;26.40;;;4.50;68.90;;;;;;5036496;28;20034;-81
2022/03/24 06:31:32;;;;;;;41.13;26.60;;;4.50;68.90;;;;;;5035335;28;20049;-81
2022/03/24 06:33:59;;;;;;;39.60;27.00;;;4.60;69.00;;;;;;5034241;28;20068;-81
2022/03/24 06:36:26;;;;;;;37.15;27.38;;;4.50;69.00;;;;;;5035469;28;20119;-81
2022/03/24 06:38:53;;;;;;;40.50;25.60;;;4.50;69.10;;;;;;5037189;28;20107;-81
2022/03/24 06:41:21;;;;;;;39.40;26.33;;;4.50;69.10;;;;;;5036628;28;20449;-81
2022/03/24 06:43:48;;;;;;;39.42;25.85;;;4.50;69.10;;;;;;5036224;28;20464;-81
2022/03/24 06:46:15;;;;;;;37.03;26.38;;;4.50;69.20;;;;;;5036002;28;20052;-81
2022/03/24 06:48:42;;;;;;;38.38;26.08;;;4.50;69.20;;;;;;5032465;28;20068;-81
2022/03/24 06:51:09;;;;;;;37.25;25.40;;;4.50;69.20;;;;;;5038480;28;20053;-81
2022/03/24 06:53:36;;;;;;;33.97;24.73;;;4.50;69.30;;;;;;5035033;28;20506;-81
2022/03/24 06:56:05;;;;;;;37.97;26.92;;;4.60;69.30;;;;;;5036357;28;20065;-81
2022/03/24 06:58:32;;;;;;;37.67;26.00;;;4.60;69.30;;;;;;5036065;28;20080;-81
2022/03/24 07:00:59;;;;;;;38.80;26.88;;;4.60;69.30;;;;;;5033699;28;20115;-81
2022/03/24 07:03:26;;;;;;;37.45;27.80;;;4.60;69.40;;;;;;5035018;28;20045;-81
2022/03/24 07:05:53;;;;;;;38.42;26.33;;;4.60;69.40;;;;;;5036508;28;20045;-81
2022/03/24 07:08:20;;;;;;;38.63;26.40;;;4.70;69.50;;;;;;5036250;28;20053;-81
2022/03/24 07:10:47;;;;;;;36.08;26.38;;;4.70;69.50;;;;;;5033507;28;20081;-83
2022/03/24 07:13:14;;;;;;;40.03;26.55;;;4.70;69.60;;;;;;5034187;28;20500;-82
2022/03/24 07:15:41;;;;;;;39.00;27.05;;;4.70;69.60;;;;;;5031996;28;20041;-83
2022/03/24 07:18:09;;;;;;;34.72;26.25;;;4.70;69.70;;;;;;5037935;28;20501;-83
2022/03/24 07:20:37;;;;;;;37.50;25.73;;;4.80;69.70;;;;;;5035968;28;20460;-83
2022/03/24 07:23:06;;;;;;;35.03;26.90;;;4.80;69.80;;;;;;5035920;28;20041;-82
2022/03/24 07:25:33;;;;;;;36.17;27.58;;;4.90;69.80;;;;;;5035755;28;20092;-82
2022/03/24 07:28:01;;;;;;;37.78;27.90;;;4.90;69.90;;;;;;5033233;28;20049;-82
2022/03/24 07:30:28;;;;;;;36.38;28.15;;;4.90;70.00;;;;;;5033916;28;20053;-81
2022/03/24 07:32:56;;;;;;;41.72;28.73;;;4.90;70.10;;;;;;5034380;28;20056;-82
2022/03/24 07:35:26;;;;;;;40.38;28.52;;;5.00;70.10;;;;;;5034372;28;20392;-81
2022/03/24 07:37:53;;;;;;;40.75;29.40;;;5.10;70.30;;;;;;5035569;28;20502;-81
2022/03/24 07:40:22;;;;;;;39.67;28.25;;;5.10;70.50;;;;;;5035542;28;20131;-81
2022/03/24 07:42:52;;;;;;;43.58;29.20;;;5.20;70.60;;;;;;5031234;28;20080;-81
2022/03/24 07:45:22;;;;;;;38.40;28.65;;;5.20;70.80;;;;;;5035790;28;20064;-81
2022/03/24 07:48:07;;;;;;;41.05;29.60;;;5.30;70.90;;;;;;5036281;28;20053;-81
2022/03/24 07:50:34;;;;;;;40.67;30.55;;;5.40;71.00;;;;;;5035383;28;20053;-81
2022/03/24 07:53:32;;;;;;;41.85;28.70;;;5.40;71.00;;;;;;5035178;28;20525;-81
2022/03/24 07:56:00;;;;;;;40.88;29.88;;;5.50;71.20;;;;;;5033769;28;20107;-81
2022/03/24 07:58:27;;;;;;;42.22;30.83;;;5.60;71.20;;;;;;5032453;28;20468;-81
2022/03/24 08:00:57;;;;;;;41.05;29.83;;;5.70;71.30;;;;;;5032817;28;20050;-81
2022/03/24 08:03:25;;;;;;;50.00;31.48;;;5.70;71.30;;;;;;5034061;28;20049;-81
2022/03/24 08:05:52;;;;;;;43.50;31.02;;;5.80;71.40;;;;;;5035918;28;20048;-81
2022/03/24 08:08:20;;;;;;;40.63;31.00;;;5.90;71.50;;;;;;5035017;28;20049;-81
2022/03/24 08:10:48;;;;;;;45.83;31.15;;;6.00;71.60;;;;;;5034335;28;20046;-81
2022/03/24 08:13:18;;;;;;;42.25;30.40;;;6.20;71.70;;;;;;5034361;28;20056;-81
2022/03/24 08:15:45;;;;;;;44.33;31.80;;;6.20;71.80;;;;;;5014821;28;20053;-81
2022/03/24 08:18:14;;;;;;;46.25;31.05;;;6.40;71.80;;;;;;5075798;28;20084;-81
2022/03/24 08:20:43;;;;;;;41.03;31.90;;;6.50;71.80;;;;;;5032330;28;20457;-81
2022/03/24 08:23:13;;;;;;;43.97;33.03;;;6.60;71.70;;;;;;5033274;28;20050;-81
2022/03/24 08:25:42;;;;;;;45.17;32.78;;;6.70;71.60;;;;;;5032832;28;20041;-81
2022/03/24 08:28:10;;;;;;;45.13;31.80;;;6.90;71.50;;;;;;5033342;28;20559;-81
2022/03/24 08:30:38;;;;;;;46.28;31.80;;;7.00;71.40;;;;;;5030990;28;20064;-82
2022/03/24 08:33:06;;;;;;;42.13;31.48;;;7.20;71.20;;;;;;5036419;28;20053;-82
2022/03/24 08:35:33;;;;;;;45.17;31.33;;;7.30;71.10;;;;;;5034444;28;20049;-81
2022/03/24 08:38:00;;;;;;;41.83;30.42;;;7.40;70.90;;;;;;5034434;28;20169;-81
2022/03/24 08:40:27;;;;;;;47.20;31.25;;;7.50;70.70;;;;;;5034140;28;20513;-81
2022/03/24 08:42:54;;;;;;;45.58;32.35;;;7.60;70.50;;;;;;5031049;28;20518;-81
2022/03/24 08:45:21;;;;;;;41.97;30.58;;;7.80;70.30;;;;;;5034390;28;20096;-81
2022/03/24 08:47:48;;;;;;;42.35;31.52;;;7.90;70.10;;;;;;5032933;28;20049;-81
2022/03/24 08:50:16;;;;;;;45.33;30.63;;;8.10;69.90;;;;;;5034229;28;20054;-81
2022/03/24 08:52:43;;;;;;;45.47;31.75;;;8.20;69.60;;;;;;5034446;28;20566;-81
2022/03/24 08:55:13;;;;;;;43.00;31.60;;;8.40;69.40;;;;;;5032754;28;20041;-83
2022/03/24 08:57:41;;;;;;;41.88;31.27;;;8.50;69.10;;;;;;5030389;28;20049;-81
2022/03/24 09:00:15;;;;;;;44.45;32.75;;;8.70;68.80;;;;;;5036210;28;20406;-81
2022/03/24 09:02:45;;;;;;;50.67;33.05;;;8.80;68.50;;;;;;5033476;28;20056;-81
2022/03/24 09:05:16;;;;;;;49.85;32.17;;;8.90;68.20;;;;;;5033117;28;20068;-83
2022/03/24 09:07:43;;;;;;;41.42;31.23;;;9.10;67.90;;;;;;5032751;28;20124;-81
2022/03/24 09:10:12;;;;;;;48.65;33.55;;;9.20;67.60;;;;;;5032699;28;20045;-81
2022/03/24 09:12:44;;;;;;;46.05;33.20;;;9.40;67.30;;;;;;5029421;28;20060;-81
2022/03/24 09:15:13;;;;;;;45.67;32.28;;;9.50;67.00;;;;;;5036055;28;20056;-81
2022/03/24 09:17:40;;;;;;;51.15;31.33;;;9.60;66.80;;;;;;5032959;28;20054;-81
2022/03/24 09:20:09;;;;;;;45.97;33.08;;;9.80;66.50;;;;;;5034180;28;20088;-82
2022/03/24 09:22:38;;;;;;;48.17;33.35;;;9.90;66.30;;;;;;5033797;28;20059;-83
2022/03/24 09:25:05;;;;;;;47.20;33.63;;;10.00;66.00;;;;;;5030940;28;20042;-82
2022/03/24 09:27:33;;;;;;;50.05;33.75;;;10.20;65.80;;;;;;5029976;28;20528;-82
2022/03/24 09:30:00;;;;;;;43.25;33.08;;;10.30;65.50;;;;;;5035809;28;20053;-82
2022/03/24 09:32:26;;;;;;;45.92;33.50;;;10.40;65.20;;;;;;5034102;28;20064;-83
2022/03/24 09:34:54;;;;;;;47.33;32.28;;;10.50;64.90;;;;;;5033867;28;20041;-81
2022/03/24 09:37:22;;;;;;;46.72;33.58;;;10.70;64.70;;;;;;5036090;28;20049;-81
2022/03/24 09:39:50;;;;;;;50.50;35.15;;;10.80;64.40;;;;;;5033703;28;20470;-80
2022/03/24 09:42:18;;;;;;;51.72;34.58;;;10.90;64.10;;;;;;5038418;28;20103;-81
2022/03/24 09:44:45;;;;;;;47.30;33.67;;;11.10;63.90;;;;;;5036888;28;20056;-81
2022/03/24 09:47:13;;;;;;;46.45;33.08;;;11.20;63.60;;;;;;5036325;28;20053;-80
2022/03/24 09:49:41;;;;;;;53.33;34.13;;;11.40;63.40;;;;;;5037270;28;20457;-81
2022/03/24 09:52:10;;;;;;;47.35;33.83;;;11.50;63.10;;;;;;5034467;28;20052;-81
2022/03/24 09:54:39;;;;;;;48.03;34.17;;;11.60;62.80;;;;;;5034083;28;20061;-81
2022/03/24 09:57:08;;;;;;;47.03;32.50;;;11.80;62.50;;;;;;5039451;28;20053;-80
2022/03/24 09:59:36;;;;;;;48.42;33.00;;;11.90;62.20;;;;;;5037281;28;20049;-80
2022/03/24 10:02:05;;;;;;;48.05;34.08;;;12.10;62.00;;;;;;5038108;28;20049;-80
2022/03/24 10:04:54;;;;;;;46.90;32.60;;;12.30;61.70;;;;;;5037097;28;20529;-80
2022/03/24 10:07:23;;;;;;;48.90;33.67;;;12.40;61.40;;;;;;5036920;28;20053;-80
2022/03/24 10:09:53;;;;;;;47.70;33.08;;;12.50;61.10;;;;;;5033210;28;20096;-80
2022/03/24 10:12:31;;;;;;;44.72;33.83;;;12.70;60.90;;;;;;5037224;28;20046;-80
2022/03/24 10:15:07;;;;;;;52.33;35.45;;;12.90;60.60;;;;;;5037039;28;20568;-80
2022/03/24 10:17:36;;;;;;;48.25;33.45;;;13.00;60.30;;;;;;5035857;28;20053;-80
2022/03/24 10:20:08;;;;;;;50.30;34.80;;;13.20;60.00;;;;;;5037248;28;20045;-80
2022/03/24 10:22:36;;;;;;;49.40;34.15;;;13.40;59.60;;;;;;5036767;28;20094;-81
2022/03/24 10:25:21;;;;;;;47.75;35.47;;;13.50;59.20;;;;;;5033612;28;20049;-80
2022/03/24 10:28:04;;;;;;;48.45;34.10;;;13.60;58.80;;;;;;5017537;28;20116;-80
2022/03/24 10:30:52;;;;;;;50.28;34.33;;;13.80;58.30;;;;;;5034353;28;20461;-80
2022/03/24 10:33:30;;;;;;;50.00;32.63;;;14.00;57.90;;;;;;5046698;28;20049;-80
2022/03/24 10:36:18;;;;;;;47.65;34.30;;;14.10;57.50;;;;;;5068248;28;20502;-79
2022/03/24 10:38:48;;;;;;;46.50;34.40;;;14.30;57.10;;;;;;5035997;28;20053;-80
2022/03/24 10:41:19;;;;;;;50.45;34.22;;;14.40;56.70;;;;;;5035550;28;20045;-79
2022/03/24 10:43:49;;;;;;;45.80;33.80;;;14.50;56.30;;;;;;5036642;28;20045;-79
2022/03/24 10:46:19;;;;;;;50.00;33.90;;;14.70;56.00;;;;;;5036247;28;20048;-81
2022/03/24 10:48:47;;;;;;;50.67;32.90;;;14.80;55.60;;;;;;5016326;28;20045;-80
2022/03/24 10:51:25;;;;;;;51.50;34.45;;;14.90;55.20;;;;;;5038311;28;20095;-80
2022/03/24 10:54:02;;;;;;;52.53;35.03;;;15.10;54.70;;;;;;5037653;28;20099;-79
2022/03/24 10:56:41;;;;;;;47.92;34.40;;;15.20;54.40;;;;;;5036433;28;20425;-81
2022/03/24 10:59:08;;;;;;;57.17;35.40;;;15.40;54.00;;;;;;5035197;28;20510;-80
2022/03/24 11:01:35;;;;;;;48.38;34.58;;;15.40;53.70;;;;;;5036341;28;20413;-80
2022/03/24 11:04:02;;;;;;;50.45;33.60;;;15.50;53.20;;;;;;5032346;28;20104;-81
2022/03/24 11:06:30;;;;;;;48.88;32.72;;;15.60;52.90;;;;;;5034203;28;20045;-80
2022/03/24 11:09:01;;;;;;;44.65;32.95;;;15.70;52.60;;;;;;5034859;28;20045;-81
2022/03/24 11:11:29;;;;;;;49.80;33.20;;;15.80;52.30;;;;;;5035591;28;20041;-81
2022/03/24 11:14:02;;;;;;;46.47;32.83;;;15.90;52.00;;;;;;5035727;28;20041;-81
2022/03/24 11:16:32;;;;;;;49.43;33.37;;;15.90;51.70;;;;;;5035945;28;20056;-81
2022/03/24 11:19:01;;;;;;;53.30;34.00;;;16.00;51.50;;;;;;5032745;28;20041;-81
2022/03/24 11:21:31;;;;;;;46.55;32.20;;;16.10;51.20;;;;;;5034107;28;20072;-81
2022/03/24 11:23:58;;;;;;;42.40;31.65;;;16.10;50.80;;;;;;5035558;28;20848;-81
2022/03/24 11:26:26;;;;;;;50.33;31.58;;;16.20;50.60;;;;;;5035814;28;20056;-81
2022/03/24 11:28:54;;;;;;;46.42;31.38;;;16.30;50.30;;;;;;5035560;28;20045;-81
2022/03/24 11:31:28;;;;;;;46.65;31.10;;;16.40;50.00;;;;;;5035476;28;20053;-80
2022/03/24 11:33:58;;;;;;;45.25;30.33;;;16.40;49.70;;;;;;5031835;28;20056;-80
2022/03/24 11:36:27;;;;;;;44.50;29.92;;;16.50;49.40;;;;;;5033316;28;20053;-81
2022/03/24 11:38:56;;;;;;;48.55;30.75;;;16.60;49.10;;;;;;5036930;28;20053;-80
2022/03/24 11:41:53;;;;;;;40.40;29.70;;;16.60;48.70;;;;;;5035383;28;20053;-81
2022/03/24 11:44:32;;;;;;;40.85;29.50;;;16.70;48.40;;;;;;5035439;28;20064;-81
2022/03/24 11:47:01;;;;;;;39.10;27.92;;;16.80;48.00;;;;;;5035021;28;20049;-82
2022/03/24 11:49:30;;;;;;;41.97;28.45;;;16.90;47.70;;;;;;5035101;28;20583;-81
2022/03/24 11:51:57;;;;;;;41.28;29.77;;;16.90;47.40;;;;;;5032540;28;20418;-81
2022/03/24 11:54:30;;;;;;;41.88;29.50;;;16.90;47.10;;;;;;5034555;28;20099;-81
2022/03/24 11:57:22;;;;;;;44.43;28.40;;;17.00;46.80;;;;;;5035017;28;20556;-81
2022/03/24 11:59:49;;;;;;;38.53;27.65;;;17.00;46.40;;;;;;5035292;28;20099;-81
2022/03/24 12:02:23;;;;;;;43.33;28.17;;;17.10;46.20;;;;;;5034905;28;20510;-81
2022/03/24 12:04:57;;;;;;;41.10;28.33;;;17.10;45.90;;;;;;5034949;28;20063;-81
2022/03/24 12:07:25;;;;;;;45.60;27.02;;;17.20;45.70;;;;;;5034934;28;20575;-81
2022/03/24 12:09:58;;;;;;;45.92;26.13;;;17.20;45.40;;;;;;5031194;28;20522;-81
2022/03/24 12:12:25;;;;;;;36.73;26.60;;;17.30;45.10;;;;;;5034244;28;20046;-81
2022/03/24 12:14:54;;;;;;;41.65;27.33;;;17.30;44.90;;;;;;5035967;28;20053;-82
2022/03/24 12:17:31;;;;;;;40.08;26.98;;;17.40;44.50;;;;;;5034460;28;20045;-81
2022/03/24 12:20:00;;;;;;;39.38;27.38;;;17.40;44.30;;;;;;5034830;28;20099;-81
2022/03/24 12:22:31;;;;;;;38.30;26.35;;;17.40;44.10;;;;;;5033399;28;20156;-81
2022/03/24 12:25:00;;;;;;;33.47;25.10;;;17.40;43.90;;;;;;5031722;28;20049;-81
2022/03/24 12:27:33;;;;;;;33.80;26.08;;;17.50;43.70;;;;;;5033133;28;20395;-81
2022/03/24 12:30:17;;;;;;;33.53;25.08;;;17.50;43.50;;;;;;5066995;28;20084;-81
2022/03/24 12:33:09;;;;;;;33.80;24.48;;;17.60;43.30;;;;;;5034866;28;20099;-81
2022/03/24 12:35:43;;;;;;;32.80;23.67;;;17.60;43.10;;;;;;5033295;28;20063;-81
2022/03/24 12:38:33;;;;;;;32.42;23.40;;;17.70;42.90;;;;;;5034179;28;20521;-82
2022/03/24 12:41:03;;;;;;;39.38;23.75;;;17.80;42.70;;;;;;5030401;28;20042;-82
2022/03/24 12:44:06;;;;;;;29.50;22.77;;;17.80;42.50;;;;;;5034433;28;20057;-82
2022/03/24 12:46:34;;;;;;;31.10;22.70;;;17.90;42.20;;;;;;5034143;28;20098;-82